South Reno (Wolf Run), Nevada Weather observations

Data are for observation ending at time listed.
 Day   Time    Ave.   Ave.  Ave.  Vector   Max.   Stn.    Total    Solar   Ave.  
  of    of     Air    Rel.  Wind   Wind    Wind   Baro.  Precip.   Rad.    Soil  
Year   Day     Temp.  Hum.  Speed  Dir.    Gust   Pres.                    Temp. 
2015   (PST)    F      %     mph   deg.    mph     mb.     in.     W/m2     F   
------------------------------------------------------------------------------
 241   20:00   66.7    39   10.6   210     16.0  99999.0    0.00       0    67.3
 241   20:10   66.3    41   10.6   206     18.4  99999.0    0.00       0    67.2
 241   20:20   66.1    42   11.8   201     19.3  99999.0    0.00       0    67.1
 241   20:30   66.1    43   11.6   201     18.7  99999.0    0.00       0    67.1
 241   20:40   66.2    42   13.2   199     20.6  99999.0    0.00       0    67.0
 241   20:50   65.9    44   13.6   196     21.7  99999.0    0.00       0    66.9
 241   21:00   63.4    50   14.4   207     24.9  99999.0    0.00       0    66.8
 241   21:10   64.6    46   13.1   197     23.5  99999.0    0.00       0    66.8
 241   21:20   64.8    46   12.5   203     20.5  99999.0    0.00       0    66.7
 241   21:30   65.0    46   12.8   209     19.3  99999.0    0.00       0    66.6
 241   21:40   64.9    47   12.0   204     18.8  99999.0    0.00       0    66.5
 241   21:50   65.1    46   13.2   196     22.0  99999.0    0.00       0    66.4
 241   22:00   65.5    46   14.2   200     23.5  99999.0    0.00       0    66.3
 241   22:10   65.7    45   13.9   196     22.6  99999.0    0.00       0    66.2
 241   22:20   65.7    45   13.5   202     20.6  99999.0    0.00       0    66.1
 241   22:30   65.6    45   13.6   202     22.2  99999.0    0.00       0    66.0
 241   22:40   65.7    44   13.2   208     26.5  99999.0    0.00       0    65.9
 241   22:50   65.6    44   10.7   208     18.7  99999.0    0.00       0    65.8
 241   23:00   63.6    51    6.7   228     13.0  99999.0    0.00       0    65.7
 241   23:10   64.0    49    4.4   233     10.9  99999.0    0.00       0    65.7
 241   23:20   63.3    49    3.6    33      9.1  99999.0    0.00       0    65.6
 241   23:30   63.5    49    4.4   134     10.1  99999.0    0.00       0    65.5
 241   23:40   62.8    50    2.9   134      5.3  99999.0    0.00       0    65.4
 241   23:50   62.7    51    5.0   187     10.1  99999.0    0.00       0    65.4
 242    0:00   63.4    50    7.5   214     12.7  99999.0    0.00       0    65.3
 242    0:10   63.7    49    9.2   214     15.4  99999.0    0.00       0    65.3
 242    0:20   63.0    52    9.8   204     18.2  99999.0    0.00       0    65.2
 242    0:30   62.8    50    6.5   190     15.0  99999.0    0.00       0    65.1
 242    0:40   61.6    54    3.5   112      7.2  99999.0    0.00       0    65.1
 242    0:50   60.9    55    3.0   128      5.4  99999.0    0.00       0    65.0
 242    1:00   60.7    56    4.5   122      7.3  99999.0    0.00       0    64.9
 242    1:10   60.7    55    3.3   158      7.6  99999.0    0.00       0    64.9
 242    1:20   60.3    56    1.7   211      4.8  99999.0    0.00       0    64.8
 242    1:30   59.9    54    1.9   218     14.1  99999.0    0.00       0    64.7
 242    1:40   60.5    53    2.3   328      5.1  99999.0    0.00       0    64.7
 242    1:50   59.4    54    0.8   248      3.5  99999.0    0.00       0    64.6
 242    2:00   59.7    55    3.4   160      7.1  99999.0    0.00       0    64.5
 242    2:10   57.9    57    2.9   227      5.9  99999.0    0.00       0    64.5
 242    2:20   57.2    60    1.9   254      6.8  99999.0    0.00       0    64.4
 242    2:30   57.1    61    1.8   246      6.4  99999.0    0.00       0    64.3
 242    2:40   57.6    59    2.4   247      5.9  99999.0    0.00       0    64.3
 242    2:50   57.1    59    2.1   267      5.6  99999.0    0.00       0    64.2
 242    3:00   56.6    60    2.8   286      7.0  99999.0    0.00       0    64.1
 242    3:10   56.8    60    2.1   308      6.1  99999.0    0.00       0    64.1
 242    3:20   56.4    61    1.1   281      5.2  99999.0    0.00       0    64.0
 242    3:30   56.6    60    1.0   310      4.5  99999.0    0.00       0    64.0
 242    3:40   56.4    60    1.5   274      4.3  99999.0    0.00       0    63.9
 242    3:50   56.0    61    1.4   269      4.7  99999.0    0.00       0    63.8
 242    4:00   55.5    61    2.9   234      7.3  99999.0    0.00       0    63.8
 242    4:10   55.3    62    0.4   279      3.0  99999.0    0.00       0    63.7
 242    4:20   55.4    62    1.7   258      4.8  99999.0    0.00       0    63.7
 242    4:30   55.5    61    1.6   240      6.3  99999.0    0.00       0    63.6
 242    4:40   55.0    63    1.2   263      5.7  99999.0    0.00       0    63.6
 242    4:50   54.6    64    1.2   251      5.3  99999.0    0.00       0    63.5
 242    5:00   54.7    63    1.7   313      7.5  99999.0    0.00       0    63.4
 242    5:10   56.1    60    2.9   245      7.9  99999.0    0.00       0    63.4
 242    5:20   56.9    59    1.7   298      6.8  99999.0    0.00       1    63.3
 242    5:30   58.1    56    3.1   280      8.1  99999.0    0.00      10    63.3
 242    5:40   58.7    54    2.0   329      7.2  99999.0    0.00      24    63.2
 242    5:50   59.7    53    1.2   246      4.8  99999.0    0.00      53    63.2
 242    6:00   59.8    53    1.5   246      4.9  99999.0    0.00      92    63.1
 242    6:10   62.0    51    1.0   305      3.7  99999.0    0.00     132    63.1
 242    6:20   62.6    51    1.7   310      5.9  99999.0    0.00     180    63.0
 242    6:30   63.8    49    0.3   278      2.5  99999.0    0.00     135    63.0
 242    6:40   62.0    52    2.1   319      6.5  99999.0    0.00     119    62.9
 242    6:50   61.4    54    1.4   256      5.0  99999.0    0.00     132    62.9
 242    7:00   61.9    53    1.1   276      5.7  99999.0    0.00     131    62.9
 242    7:10   62.2    53    0.3   260      3.4  99999.0    0.00     137    62.8
 242    7:20   62.7    50    2.5   303      6.5  99999.0    0.00     167    62.8
 242    7:30   63.7    50    0.9   334      5.0  99999.0    0.00     206    62.8
 242    7:40   63.6    50    2.8    36      6.0  99999.0    0.00     289    62.8
 242    7:50   65.3    47    2.4   335      6.5  99999.0    0.00     528    62.8
 242    8:00   67.0    44    3.4   335      7.3  99999.0    0.00     548    62.8
 242    8:10   67.5    44    3.4   336      7.0  99999.0    0.00     507    62.8
 242    8:20   67.9    42    4.8   340      9.8  99999.0    0.00     602    62.8
 242    8:30   67.7    42    6.0   346     10.7  99999.0    0.00     537    62.8
 242    8:40   67.2    43    4.7   338      9.2  99999.0    0.00     418    62.9
 242    8:50   67.9    41    5.4   355      9.6  99999.0    0.00     613    62.9
 242    9:00   69.0    38    5.4   351     10.3  99999.0    0.00     650    62.9
 242    9:10   69.4    36    4.8   353     10.8  99999.0    0.00     603    63.0
 242    9:20   69.7    36    3.7   360      7.4  99999.0    0.00     566    63.1
 242    9:30   70.6    35    4.1    16      7.3  99999.0    0.00     747    63.2
 242    9:40   71.6    34    4.4    11      8.0  99999.0    0.00     809    63.2
 242    9:50   72.6    33    4.0   355      9.0  99999.0    0.00     816    63.3
 242   10:00   72.3    33    3.2    73      6.5  99999.0    0.00     835    63.4
 242   10:10   72.8    32    4.7   304     21.5  99999.0    0.00     850    63.5
 242   10:20   73.3    26    7.4   204     16.8  99999.0    0.00     868    63.6
 242   10:30   73.8    23   14.0   212     27.6  99999.0    0.00     890    63.8
 242   10:40   73.7    24   17.4   222     26.6  99999.0    0.00     913    63.9
 242   10:50   73.7    24   16.7   225     32.0  99999.0    0.00     929    64.0
 242   11:00   74.0    24   12.8   219     24.0  99999.0    0.00     937    64.2
 242   11:10   75.0    21   15.3   212     27.3  99999.0    0.00     950    64.3
 242   11:20   74.6    21   16.9   217     28.6  99999.0    0.00     961    64.5
 242   11:30   75.1    21   14.9   221     23.5  99999.0    0.00     959    64.6
 242   11:40   75.6    20   13.4   206     26.3  99999.0    0.00     970    64.7
 242   11:50   76.2    19   14.2   204     23.0  99999.0    0.00     981    64.8
 242   12:00   76.0    19   13.8   201     26.3  99999.0    0.00     983    64.9
 242   12:10   76.3    19   14.1   211     24.1  99999.0    0.00     887    65.0
 242   12:20   76.4    18   15.0   212     22.9  99999.0    0.00     926    65.1
 242   12:30   76.7    19   15.9   219     26.3  99999.0    0.00    1022    65.2
 242   12:40   77.3    18   15.1   216     25.5  99999.0    0.00    1060    65.4
 242   12:50   77.8    17   14.0   198     23.3  99999.0    0.00    1145    65.5
 242   13:00   76.9    18   14.6   198     24.4  99999.0    0.00     912    65.6
 242   13:10   77.3    18   12.4   195     20.5  99999.0    0.00     697    65.7
 242   13:20   77.4    18   13.1   198     22.0  99999.0    0.00     978    65.8
 242   13:30   77.8    17   12.5   198     21.7  99999.0    0.00     844    65.9
 242   13:40   77.9    17   12.7   189     22.0  99999.0    0.00     989    65.9
 242   13:50   78.4    16   12.9   188     21.4  99999.0    0.00     957    66.1
 242   14:00   78.9    16   11.1   192     20.7  99999.0    0.00     956    66.2
 242   14:10   78.9    16   11.7   174     24.1  99999.0    0.00     901    66.3
 242   14:20   79.3    16   10.1   186     18.9  99999.0    0.00     856    66.3
 242   14:30   78.9    15   10.1   197     17.4  99999.0    0.00     838    66.5
 242   14:40   79.6    15    9.4   199     17.3  99999.0    0.00     790    66.5
 242   14:50   79.0    16    7.8   225     18.0  99999.0    0.00     750    66.7
 242   15:00   79.2    15    9.1   220     18.0  99999.0    0.00     719    66.7
 242   15:10   79.7    14    8.3   204     17.0  99999.0    0.00     682    66.8
 242   15:20   78.8    15    7.5   217     13.7  99999.0    0.00     645    66.9
 242   15:30   79.2    14    6.5   225     12.8  99999.0    0.00     615    67.0
 242   15:40   80.1    13    4.8   286     14.9  99999.0    0.00     592    67.1
 242   15:50   80.7    13    4.7   308     12.8  99999.0    0.00     569    67.2
 242   16:00   79.6    13    5.6   249     13.4  99999.0    0.00     525    67.3
 242   16:10   81.2    14    2.2   299      8.2  99999.0    0.00     484    67.4
 242   16:20   80.1    14    3.4   267     14.6  99999.0    0.00     448    67.4
 242   16:30   80.0    13    4.4   297     14.6  99999.0    0.00     417    67.5
 242   16:40   78.5    13    4.9   297     13.1  99999.0    0.00     377    67.6
 242   16:50   78.4    13    3.2   291     11.4  99999.0    0.00     332    67.6
 242   17:00   77.0    14    2.0   274      6.5  99999.0    0.00     270    67.7
 242   17:10   76.0    15    2.1   284     10.4  99999.0    0.00      86    67.7
 242   17:20   75.3    14    3.4   268     13.3  99999.0    0.00      66    67.7
 242   17:30   74.8    15    2.5   264      9.3  99999.0    0.00      59    67.8
 242   17:40   74.2    15    2.7   263     10.5  99999.0    0.00      48    67.8
 242   17:50   73.4    16    2.0   286      8.6  99999.0    0.00      42    67.8
 242   18:00   72.9    16    1.8   295     10.3  99999.0    0.00      33    67.8
 242   18:10   71.4    17    1.4   299      7.1  99999.0    0.00      23    67.7
 242   18:20   70.7    17    3.3   260     15.7  99999.0    0.00      13    67.7
 242   18:30   70.2    18    2.9   262     16.8  99999.0    0.00       6    67.7
 242   18:40   70.0    17    3.0   145      7.4  99999.0    0.00       3    67.6
 242   18:50   69.8    17    1.5    79      6.1  99999.0    0.00       1    67.6
 242   19:00   69.2    18    2.9   131      4.5  99999.0    0.00       0    67.5
 242   19:10   69.0    17    2.0   144      4.1  99999.0    0.00       0    67.5
 242   19:20   67.5    18    3.5   202      8.5  99999.0    0.00       0    67.4
 242   19:30   68.4    17    2.7   193      7.9  99999.0    0.00       0    67.3
 242   19:40   66.7    18    3.5   195      6.2  99999.0    0.00       0    67.3
 242   19:50   64.9    20    3.1   191      6.4  99999.0    0.00       0    67.2

Return to South Reno, Nevada graphs page.


Western Regional Climate Center,wrcc@dri.edu